sensor_id;sensor_type;location;lat;lon;timestamp;pressure;altitude;pressure_sealevel;temperature;humidity
69121;BME280;56228;43.550;5.030;2022-11-15T08:13:53;101235.91;;;29.47;32.23
69121;BME280;56228;43.550;5.030;2022-11-15T08:16:19;101236.53;;;29.68;32.23
69121;BME280;56228;43.550;5.030;2022-11-15T08:18:44;101236.72;;;30.49;30.49
69121;BME280;56228;43.550;5.030;2022-11-15T08:21:14;101231.00;;;30.34;30.80
69121;BME280;56228;43.550;5.030;2022-11-15T08:23:43;101238.97;;;29.87;32.34
69121;BME280;56228;43.550;5.030;2022-11-15T08:26:08;101226.50;;;29.93;31.85
69121;BME280;56228;43.550;5.030;2022-11-15T08:28:34;101228.72;;;30.25;31.84
69121;BME280;56228;43.550;5.030;2022-11-15T08:30:59;101231.59;;;30.17;32.01
69121;BME280;56228;43.550;5.030;2022-11-15T08:33:25;101236.69;;;29.47;32.88
69121;BME280;56228;43.550;5.030;2022-11-15T08:35:51;101243.13;;;29.02;33.93
69121;BME280;56228;43.550;5.030;2022-11-15T08:38:16;101235.69;;;29.99;32.25
69121;BME280;56228;43.550;5.030;2022-11-15T08:40:42;101229.06;;;30.85;31.42
69121;BME280;56228;43.550;5.030;2022-11-15T08:43:07;101226.72;;;30.50;31.16
69121;BME280;56228;43.550;5.030;2022-11-15T08:45:34;101213.47;;;29.45;31.66
69121;BME280;56228;43.550;5.030;2022-11-15T08:48:02;101230.22;;;28.28;34.54
69121;BME280;56228;43.550;5.030;2022-11-15T08:50:28;101201.34;;;29.93;32.31
69121;BME280;56228;43.550;5.030;2022-11-15T08:52:53;101231.28;;;29.13;33.75
69121;BME280;56228;43.550;5.030;2022-11-15T08:55:18;101220.19;;;29.48;32.43
69121;BME280;56228;43.550;5.030;2022-11-15T08:57:44;101222.28;;;29.17;32.54
69121;BME280;56228;43.550;5.030;2022-11-15T09:00:10;101208.53;;;30.33;31.36
69121;BME280;56228;43.550;5.030;2022-11-15T09:02:38;101216.91;;;29.13;33.15
69121;BME280;56228;43.550;5.030;2022-11-15T09:05:04;101201.59;;;29.41;32.54
69121;BME280;56228;43.550;5.030;2022-11-15T09:07:29;101210.88;;;28.80;33.97
69121;BME280;56228;43.550;5.030;2022-11-15T09:09:55;101207.56;;;28.61;34.14
69121;BME280;56228;43.550;5.030;2022-11-15T09:12:21;101195.03;;;29.18;33.04
69121;BME280;56228;43.550;5.030;2022-11-15T09:14:46;101198.78;;;28.82;33.75
69121;BME280;56228;43.550;5.030;2022-11-15T09:17:12;101202.47;;;28.38;34.70
69121;BME280;56228;43.550;5.030;2022-11-15T09:19:37;101190.34;;;28.24;34.63
69121;BME280;56228;43.550;5.030;2022-11-15T09:22:06;101188.31;;;29.38;33.08
69121;BME280;56228;43.550;5.030;2022-11-15T09:24:31;101202.47;;;28.82;33.71
69121;BME280;56228;43.550;5.030;2022-11-15T09:26:57;101192.91;;;29.87;32.07
69121;BME280;56228;43.550;5.030;2022-11-15T09:29:22;101199.47;;;29.42;32.82
69121;BME280;56228;43.550;5.030;2022-11-15T09:31:48;101204.78;;;27.75;35.32
69121;BME280;56228;43.550;5.030;2022-11-15T09:34:13;101201.75;;;29.13;33.59
69121;BME280;56228;43.550;5.030;2022-11-15T09:36:39;101192.56;;;30.24;31.88
69121;BME280;56228;43.550;5.030;2022-11-15T09:39:04;101180.38;;;30.56;31.04
69121;BME280;56228;43.550;5.030;2022-11-15T09:49:58;101180.84;;;29.43;33.36
69121;BME280;56228;43.550;5.030;2022-11-15T09:52:25;101185.44;;;28.40;34.92
69121;BME280;56228;43.550;5.030;2022-11-15T09:54:51;101185.94;;;28.75;34.56
69121;BME280;56228;43.550;5.030;2022-11-15T09:57:41;101169.53;;;29.14;34.01
69121;BME280;56228;43.550;5.030;2022-11-15T10:00:13;101168.63;;;30.06;32.05
69121;BME280;56228;43.550;5.030;2022-11-15T10:05:26;101167.81;;;27.92;35.87
69121;BME280;56228;43.550;5.030;2022-11-15T10:10:51;101143.00;;;30.99;30.84
69121;BME280;56228;43.550;5.030;2022-11-15T10:13:28;101147.25;;;28.99;34.34
69121;BME280;56228;43.550;5.030;2022-11-15T10:21:57;101139.72;;;32.14;29.29
69121;BME280;56228;43.550;5.030;2022-11-15T10:24:28;101107.63;;;31.76;29.24
69121;BME280;56228;43.550;5.030;2022-11-15T10:26:55;101143.88;;;32.66;28.60
69121;BME280;56228;43.550;5.030;2022-11-15T10:29:22;101144.22;;;32.70;28.35
69121;BME280;56228;43.550;5.030;2022-11-15T10:31:48;101147.78;;;32.88;28.12
69121;BME280;56228;43.550;5.030;2022-11-15T10:34:19;101138.50;;;33.26;27.53
69121;BME280;56228;43.550;5.030;2022-11-15T10:36:58;101140.06;;;33.66;27.10
69121;BME280;56228;43.550;5.030;2022-11-15T10:39:25;101146.19;;;33.70;27.00
69121;BME280;56228;43.550;5.030;2022-11-15T10:41:51;101129.84;;;34.04;26.80
69121;BME280;56228;43.550;5.030;2022-11-15T10:46:45;101128.94;;;32.15;29.40
69121;BME280;56228;43.550;5.030;2022-11-15T10:49:24;101122.09;;;33.02;28.02
69121;BME280;56228;43.550;5.030;2022-11-15T10:51:54;101123.16;;;33.82;26.81
69121;BME280;56228;43.550;5.030;2022-11-15T10:56:57;101119.34;;;33.79;26.98
69121;BME280;56228;43.550;5.030;2022-11-15T10:59:26;101115.91;;;32.78;28.26
69121;BME280;56228;43.550;5.030;2022-11-15T11:01:53;101102.78;;;33.14;28.00
69121;BME280;56228;43.550;5.030;2022-11-15T11:04:19;101089.25;;;33.46;27.51
69121;BME280;56228;43.550;5.030;2022-11-15T11:06:54;101080.53;;;33.16;27.72
69121;BME280;56228;43.550;5.030;2022-11-15T11:09:34;101076.97;;;31.63;30.05
69121;BME280;56228;43.550;5.030;2022-11-15T11:12:02;101059.00;;;31.29;30.60
69121;BME280;56228;43.550;5.030;2022-11-15T11:14:33;101058.81;;;32.14;29.30
69121;BME280;56228;43.550;5.030;2022-11-15T11:17:27;101057.75;;;30.15;31.80
69121;BME280;56228;43.550;5.030;2022-11-15T11:34:01;101008.16;;;32.13;29.75
69121;BME280;56228;43.550;5.030;2022-11-15T11:42:07;100991.22;;;33.03;28.42
69121;BME280;56228;43.550;5.030;2022-11-15T11:47:31;100986.03;;;32.82;29.16
69121;BME280;56228;43.550;5.030;2022-11-15T11:50:13;100979.16;;;31.77;29.88
69121;BME280;56228;43.550;5.030;2022-11-15T11:55:41;100960.91;;;28.82;35.49
69121;BME280;56228;43.550;5.030;2022-11-15T11:58:16;100959.38;;;28.66;35.42
69121;BME280;56228;43.550;5.030;2022-11-15T12:00:55;100946.94;;;30.41;33.69
69121;BME280;56228;43.550;5.030;2022-11-15T12:06:09;100958.53;;;29.67;33.71
69121;BME280;56228;43.550;5.030;2022-11-15T12:08:49;100946.06;;;30.56;32.36
69121;BME280;56228;43.550;5.030;2022-11-15T12:11:23;100951.75;;;28.53;35.87
69121;BME280;56228;43.550;5.030;2022-11-15T12:13:58;100951.66;;;29.07;34.87
69121;BME280;56228;43.550;5.030;2022-11-15T12:16:29;100957.44;;;28.92;35.46
69121;BME280;56228;43.550;5.030;2022-11-15T12:19:01;100958.03;;;28.44;36.50
69121;BME280;56228;43.550;5.030;2022-11-15T12:24:16;100932.69;;;31.20;31.79
69121;BME280;56228;43.550;5.030;2022-11-15T12:26:56;100942.41;;;30.05;33.53
69121;BME280;56228;43.550;5.030;2022-11-15T12:29:38;100917.66;;;32.67;29.48
69121;BME280;56228;43.550;5.030;2022-11-15T12:32:27;100928.25;;;32.08;30.14
69121;BME280;56228;43.550;5.030;2022-11-15T12:34:54;100909.88;;;32.89;29.05
69121;BME280;56228;43.550;5.030;2022-11-15T12:40:26;100905.63;;;32.90;29.53
69121;BME280;56228;43.550;5.030;2022-11-15T12:45:39;100900.97;;;31.65;31.03
69121;BME280;56228;43.550;5.030;2022-11-15T13:06:44;100860.47;;;34.28;27.65
69121;BME280;56228;43.550;5.030;2022-11-15T13:12:09;100833.81;;;34.41;27.19
69121;BME280;56228;43.550;5.030;2022-11-15T13:14:59;100827.19;;;33.66;28.62
69121;BME280;56228;43.550;5.030;2022-11-15T13:19:56;100830.84;;;32.58;30.32
69121;BME280;56228;43.550;5.030;2022-11-15T13:22:24;100815.13;;;33.70;28.58
69121;BME280;56228;43.550;5.030;2022-11-15T13:27:57;100818.19;;;33.11;29.53
69121;BME280;56228;43.550;5.030;2022-11-15T13:30:26;100810.13;;;33.20;29.15
69121;BME280;56228;43.550;5.030;2022-11-15T13:32:52;100810.84;;;32.13;30.54
69121;BME280;56228;43.550;5.030;2022-11-15T13:35:23;100797.84;;;33.82;28.67
69121;BME280;56228;43.550;5.030;2022-11-15T13:37:50;100789.38;;;33.23;29.00
69121;BME280;56228;43.550;5.030;2022-11-15T13:40:26;100792.19;;;32.53;30.35
69121;BME280;56228;43.550;5.030;2022-11-15T13:42:53;100793.78;;;31.06;32.15
69121;BME280;56228;43.550;5.030;2022-11-15T13:45:19;100786.97;;;32.12;31.21
69121;BME280;56228;43.550;5.030;2022-11-15T13:47:51;100778.94;;;32.79;30.20
69121;BME280;56228;43.550;5.030;2022-11-15T13:50:18;100781.81;;;31.74;31.11
69121;BME280;56228;43.550;5.030;2022-11-15T13:52:46;100745.94;;;29.31;35.26
69121;BME280;56228;43.550;5.030;2022-11-15T13:55:17;100772.72;;;31.78;32.12
69121;BME280;56228;43.550;5.030;2022-11-15T13:57:46;100763.59;;;31.81;31.73
69121;BME280;56228;43.550;5.030;2022-11-15T14:00:38;100771.22;;;30.33;33.50
69121;BME280;56228;43.550;5.030;2022-11-15T14:05:32;100760.19;;;32.51;30.71
69121;BME280;56228;43.550;5.030;2022-11-15T14:08:02;100766.88;;;30.59;33.55
69121;BME280;56228;43.550;5.030;2022-11-15T14:10:34;100754.97;;;31.44;32.11
69121;BME280;56228;43.550;5.030;2022-11-15T14:13:02;100728.47;;;30.22;33.36
69121;BME280;56228;43.550;5.030;2022-11-15T14:15:35;100763.22;;;30.59;33.16
69121;BME280;56228;43.550;5.030;2022-11-15T14:18:01;100755.19;;;32.71;30.27
69121;BME280;56228;43.550;5.030;2022-11-15T14:20:35;100717.81;;;30.77;32.88
69121;BME280;56228;43.550;5.030;2022-11-15T14:23:05;100750.47;;;30.97;32.62
69121;BME280;56228;43.550;5.030;2022-11-15T14:25:32;100751.84;;;30.78;33.05
69121;BME280;56228;43.550;5.030;2022-11-15T14:28:29;100747.59;;;32.27;30.93
69121;BME280;56228;43.550;5.030;2022-11-15T14:30:57;100737.22;;;32.43;30.66
69121;BME280;56228;43.550;5.030;2022-11-15T14:33:25;100738.88;;;30.17;33.35
69121;BME280;56228;43.550;5.030;2022-11-15T14:35:54;100729.78;;;30.90;33.01
69121;BME280;56228;43.550;5.030;2022-11-15T14:38:21;100720.16;;;30.43;33.84
69121;BME280;56228;43.550;5.030;2022-11-15T14:40:47;100710.19;;;31.63;31.93
69121;BME280;56228;43.550;5.030;2022-11-15T14:43:13;100716.69;;;30.62;33.65
69121;BME280;56228;43.550;5.030;2022-11-15T14:45:40;100716.72;;;30.72;33.24
69121;BME280;56228;43.550;5.030;2022-11-15T14:48:06;100716.72;;;31.53;32.22
69121;BME280;56228;43.550;5.030;2022-11-15T14:50:33;100713.31;;;30.83;32.85
69121;BME280;56228;43.550;5.030;2022-11-15T14:52:59;100709.41;;;30.88;32.55
69121;BME280;56228;43.550;5.030;2022-11-15T14:55:35;100693.47;;;31.24;32.53
69121;BME280;56228;43.550;5.030;2022-11-15T14:58:05;100704.22;;;30.87;32.83
69121;BME280;56228;43.550;5.030;2022-11-15T15:00:34;100700.94;;;31.74;31.51
69121;BME280;56228;43.550;5.030;2022-11-15T15:03:00;100704.16;;;30.77;33.26
69121;BME280;56228;43.550;5.030;2022-11-15T15:05:34;100715.19;;;29.16;35.49
69121;BME280;56228;43.550;5.030;2022-11-15T15:08:00;100705.81;;;30.53;33.75
69121;BME280;56228;43.550;5.030;2022-11-15T15:10:31;100702.94;;;30.98;32.44
69121;BME280;56228;43.550;5.030;2022-11-15T15:12:58;100719.44;;;29.83;34.59
69121;BME280;56228;43.550;5.030;2022-11-15T15:15:33;100706.41;;;29.57;35.68
69121;BME280;56228;43.550;5.030;2022-11-15T15:18:00;100703.63;;;29.92;34.95
69121;BME280;56228;43.550;5.030;2022-11-15T15:20:25;100696.16;;;30.23;34.54
69121;BME280;56228;43.550;5.030;2022-11-15T15:22:51;100701.56;;;30.71;33.26
69121;BME280;56228;43.550;5.030;2022-11-15T15:25:31;100710.94;;;30.89;33.29
69121;BME280;56228;43.550;5.030;2022-11-15T15:27:59;100705.84;;;30.18;33.77
69121;BME280;56228;43.550;5.030;2022-11-15T15:30:26;100714.78;;;31.39;32.26
69121;BME280;56228;43.550;5.030;2022-11-15T15:32:52;100714.72;;;31.56;31.96
69121;BME280;56228;43.550;5.030;2022-11-15T15:35:20;100711.75;;;30.03;33.94
69121;BME280;56228;43.550;5.030;2022-11-15T15:37:47;100700.59;;;30.86;32.38
69121;BME280;56228;43.550;5.030;2022-11-15T15:40:17;100697.22;;;30.36;33.74
69121;BME280;56228;43.550;5.030;2022-11-15T15:42:43;100697.50;;;32.24;30.82
69121;BME280;56228;43.550;5.030;2022-11-15T15:45:09;100675.13;;;32.64;30.14
69121;BME280;56228;43.550;5.030;2022-11-15T15:47:35;100664.44;;;32.76;30.08
69121;BME280;56228;43.550;5.030;2022-11-15T15:50:01;100667.41;;;33.07;29.49
69121;BME280;56228;43.550;5.030;2022-11-15T15:52:26;100655.53;;;33.34;29.18
69121;BME280;56228;43.550;5.030;2022-11-15T15:54:52;100668.16;;;33.39;29.04
69121;BME280;56228;43.550;5.030;2022-11-15T15:57:17;100665.75;;;32.05;31.07
69121;BME280;56228;43.550;5.030;2022-11-15T15:59:43;100661.94;;;30.72;32.79
69121;BME280;56228;43.550;5.030;2022-11-15T16:02:12;100666.31;;;32.42;30.53
69121;BME280;56228;43.550;5.030;2022-11-15T16:04:39;100655.63;;;32.64;30.04
69121;BME280;56228;43.550;5.030;2022-11-15T16:07:04;100649.72;;;33.03;29.35
69121;BME280;56228;43.550;5.030;2022-11-15T16:09:30;100656.06;;;33.21;29.41
69121;BME280;56228;43.550;5.030;2022-11-15T16:12:14;100667.81;;;30.91;32.44
69121;BME280;56228;43.550;5.030;2022-11-15T16:14:41;100612.03;;;30.79;32.43
69121;BME280;56228;43.550;5.030;2022-11-15T16:17:15;100648.31;;;31.56;31.68
69121;BME280;56228;43.550;5.030;2022-11-15T16:19:42;100654.31;;;33.06;29.29
69121;BME280;56228;43.550;5.030;2022-11-15T16:22:07;100665.41;;;30.43;33.55
69121;BME280;56228;43.550;5.030;2022-11-15T16:24:33;100661.31;;;32.33;30.55
69121;BME280;56228;43.550;5.030;2022-11-15T16:26:58;100665.53;;;31.83;30.75
69121;BME280;56228;43.550;5.030;2022-11-15T16:29:27;100667.41;;;32.97;29.35
69121;BME280;56228;43.550;5.030;2022-11-15T16:31:53;100678.97;;;33.70;28.19
69121;BME280;56228;43.550;5.030;2022-11-15T16:34:19;100680.34;;;33.06;29.19
69121;BME280;56228;43.550;5.030;2022-11-15T16:36:44;100672.28;;;33.67;28.21
69121;BME280;56228;43.550;5.030;2022-11-15T16:39:13;100680.16;;;33.45;28.54
69121;BME280;56228;43.550;5.030;2022-11-15T16:41:40;100661.44;;;34.11;27.50
69121;BME280;56228;43.550;5.030;2022-11-15T16:44:08;100661.09;;;34.16;27.53
69121;BME280;56228;43.550;5.030;2022-11-15T16:46:34;100670.34;;;34.03;27.75
69121;BME280;56228;43.550;5.030;2022-11-15T16:48:59;100665.34;;;34.37;27.13
69121;BME280;56228;43.550;5.030;2022-11-15T16:51:25;100673.78;;;34.66;26.71
69121;BME280;56228;43.550;5.030;2022-11-15T16:53:50;100669.56;;;34.24;27.41
69121;BME280;56228;43.550;5.030;2022-11-15T16:56:34;100661.75;;;34.60;26.61
69121;BME280;56228;43.550;5.030;2022-11-15T16:59:00;100652.88;;;34.13;27.50
69121;BME280;56228;43.550;5.030;2022-11-15T17:01:36;100646.19;;;33.89;27.52
69121;BME280;56228;43.550;5.030;2022-11-15T17:04:11;100643.56;;;33.50;28.32
69121;BME280;56228;43.550;5.030;2022-11-15T17:06:38;100654.88;;;33.89;27.64
69121;BME280;56228;43.550;5.030;2022-11-15T17:09:05;100649.44;;;33.62;28.33
69121;BME280;56228;43.550;5.030;2022-11-15T17:11:31;100641.09;;;33.77;27.87
69121;BME280;56228;43.550;5.030;2022-11-15T17:13:57;100641.78;;;34.09;27.36
69121;BME280;56228;43.550;5.030;2022-11-15T17:16:24;100648.38;;;34.21;27.39
69121;BME280;56228;43.550;5.030;2022-11-15T17:18:50;100635.34;;;34.44;26.76
69121;BME280;56228;43.550;5.030;2022-11-15T17:21:20;100643.28;;;34.44;27.12
69121;BME280;56228;43.550;5.030;2022-11-15T17:23:47;100640.25;;;34.08;27.52
69121;BME280;56228;43.550;5.030;2022-11-15T17:26:14;100641.22;;;34.68;26.79
69121;BME280;56228;43.550;5.030;2022-11-15T17:28:40;100633.72;;;34.41;27.01
69121;BME280;56228;43.550;5.030;2022-11-15T17:31:11;100630.59;;;34.15;27.52
69121;BME280;56228;43.550;5.030;2022-11-15T17:33:37;100617.28;;;32.64;29.34
69121;BME280;56228;43.550;5.030;2022-11-15T17:36:09;100619.88;;;33.32;28.73
69121;BME280;56228;43.550;5.030;2022-11-15T17:38:35;100612.59;;;33.31;28.61
69121;BME280;56228;43.550;5.030;2022-11-15T17:41:05;100621.06;;;34.03;27.17
69121;BME280;56228;43.550;5.030;2022-11-15T17:43:32;100626.50;;;34.09;27.23
69121;BME280;56228;43.550;5.030;2022-11-15T17:45:59;100618.94;;;34.37;26.91
69121;BME280;56228;43.550;5.030;2022-11-15T17:48:29;100622.91;;;34.65;26.73
69121;BME280;56228;43.550;5.030;2022-11-15T17:50:56;100629.00;;;35.04;26.32
69121;BME280;56228;43.550;5.030;2022-11-15T17:53:23;100595.69;;;34.82;26.28
69121;BME280;56228;43.550;5.030;2022-11-15T17:55:48;100644.41;;;34.83;26.63
69121;BME280;56228;43.550;5.030;2022-11-15T17:58:14;100642.13;;;34.82;26.04
69121;BME280;56228;43.550;5.030;2022-11-15T18:00:44;100655.72;;;34.68;26.72
69121;BME280;56228;43.550;5.030;2022-11-15T18:03:10;100658.53;;;35.01;26.01
69121;BME280;56228;43.550;5.030;2022-11-15T18:05:35;100654.00;;;34.98;26.36
69121;BME280;56228;43.550;5.030;2022-11-15T18:08:00;100631.41;;;34.85;26.76
69121;BME280;56228;43.550;5.030;2022-11-15T18:10:26;100632.41;;;34.77;26.81
69121;BME280;56228;43.550;5.030;2022-11-15T18:12:51;100624.47;;;34.78;26.42
69121;BME280;56228;43.550;5.030;2022-11-15T18:15:17;100619.94;;;34.30;27.03
69121;BME280;56228;43.550;5.030;2022-11-15T18:17:43;100629.25;;;34.85;26.98
69121;BME280;56228;43.550;5.030;2022-11-15T18:20:09;100623.22;;;35.04;26.14
69121;BME280;56228;43.550;5.030;2022-11-15T18:22:34;100610.47;;;35.21;26.54
69121;BME280;56228;43.550;5.030;2022-11-15T18:25:00;100612.34;;;34.93;26.68
69121;BME280;56228;43.550;5.030;2022-11-15T20:18:00;100591.56;;;34.28;27.01
69121;BME280;56228;43.550;5.030;2022-11-15T20:20:26;100592.66;;;33.90;27.91
69121;BME280;56228;43.550;5.030;2022-11-15T20:22:52;100579.63;;;32.73;29.34
69121;BME280;56228;43.550;5.030;2022-11-15T20:25:17;100582.22;;;30.40;32.84
69121;BME280;56228;43.550;5.030;2022-11-15T20:27:43;100572.91;;;31.32;31.38
69121;BME280;56228;43.550;5.030;2022-11-15T20:30:08;100571.88;;;31.77;30.71
69121;BME280;56228;43.550;5.030;2022-11-15T20:32:34;100526.03;;;30.85;31.87
69121;BME280;56228;43.550;5.030;2022-11-15T20:35:00;100585.13;;;31.60;31.25
69121;BME280;56228;43.550;5.030;2022-11-15T20:37:25;100593.19;;;32.71;29.89
69121;BME280;56228;43.550;5.030;2022-11-15T20:39:51;100589.38;;;30.21;33.44
69121;BME280;56228;43.550;5.030;2022-11-15T20:42:16;100595.88;;;31.50;31.61
69121;BME280;56228;43.550;5.030;2022-11-15T20:44:42;100598.78;;;32.28;30.05
69121;BME280;56228;43.550;5.030;2022-11-15T20:47:07;100602.22;;;32.65;29.75
69121;BME280;56228;43.550;5.030;2022-11-15T20:49:32;100606.84;;;31.61;31.31
69121;BME280;56228;43.550;5.030;2022-11-15T20:51:58;100606.38;;;30.99;31.94
69121;BME280;56228;43.550;5.030;2022-11-15T20:54:23;100601.53;;;31.48;31.52
69121;BME280;56228;43.550;5.030;2022-11-15T20:56:49;100597.44;;;31.70;31.01
69121;BME280;56228;43.550;5.030;2022-11-15T20:59:14;100523.69;;;31.89;30.44
69121;BME280;56228;43.550;5.030;2022-11-15T21:01:40;100566.28;;;31.59;31.42
69121;BME280;56228;43.550;5.030;2022-11-15T21:04:05;100562.69;;;32.39;29.97
69121;BME280;56228;43.550;5.030;2022-11-15T21:06:31;100563.03;;;32.23;30.36
69121;BME280;56228;43.550;5.030;2022-11-15T21:08:56;100577.91;;;33.21;28.92
69121;BME280;56228;43.550;5.030;2022-11-15T21:11:57;100589.06;;;31.94;30.71
69121;BME280;56228;43.550;5.030;2022-11-15T21:14:41;100589.28;;;32.97;29.21
69121;BME280;56228;43.550;5.030;2022-11-15T21:17:08;100597.34;;;33.52;28.57
69121;BME280;56228;43.550;5.030;2022-11-15T21:19:34;100599.44;;;32.77;29.50
69121;BME280;56228;43.550;5.030;2022-11-15T21:22:00;100598.63;;;32.86;29.33
69121;BME280;56228;43.550;5.030;2022-11-15T21:24:25;100607.53;;;32.69;29.44
69121;BME280;56228;43.550;5.030;2022-11-15T21:26:52;100614.88;;;33.01;28.83
69121;BME280;56228;43.550;5.030;2022-11-15T21:29:20;100617.50;;;33.28;28.63
69121;BME280;56228;43.550;5.030;2022-11-15T21:31:47;100614.34;;;34.22;27.54
69121;BME280;56228;43.550;5.030;2022-11-15T21:34:14;100617.66;;;34.07;27.60
69121;BME280;56228;43.550;5.030;2022-11-15T21:36:39;100616.56;;;33.78;27.99
69121;BME280;56228;43.550;5.030;2022-11-15T21:39:05;100570.97;;;33.91;27.74
69121;BME280;56228;43.550;5.030;2022-11-15T21:41:31;100620.75;;;33.66;27.99
69121;BME280;56228;43.550;5.030;2022-11-15T21:43:58;100607.69;;;33.33;28.62
69121;BME280;56228;43.550;5.030;2022-11-15T21:46:23;100567.72;;;33.20;28.28
69121;BME280;56228;43.550;5.030;2022-11-15T21:48:49;100604.91;;;33.14;28.75
69121;BME280;56228;43.550;5.030;2022-11-15T21:51:14;100599.09;;;32.12;30.21
69121;BME280;56228;43.550;5.030;2022-11-15T21:53:40;100603.81;;;31.69;31.24
69121;BME280;56228;43.550;5.030;2022-11-15T21:56:06;100596.34;;;32.34;30.25
69121;BME280;56228;43.550;5.030;2022-11-15T21:58:32;100587.88;;;33.08;28.85
69121;BME280;56228;43.550;5.030;2022-11-15T22:00:57;100597.06;;;33.48;28.51
